createdAt,value
2023-03-01T00:00:42.634Z,-0.42
2023-03-01T00:01:44.244Z,-0.38
2023-03-01T00:02:45.884Z,-0.39
2023-03-01T00:03:47.590Z,-0.40
2023-03-01T00:04:49.264Z,-0.40
2023-03-01T00:05:50.849Z,-0.37
2023-03-01T00:06:52.495Z,-0.28
2023-03-01T00:07:54.593Z,-0.33
2023-03-01T00:08:56.449Z,-0.38
2023-03-01T00:09:58.079Z,-0.35
2023-03-01T00:11:31.490Z,-0.36
2023-03-01T00:12:33.133Z,-0.37
2023-03-01T00:13:35.486Z,-0.37
2023-03-01T00:14:37.084Z,-0.35
2023-03-01T00:15:40.746Z,-0.45
2023-03-01T00:16:44.072Z,-0.35
2023-03-01T00:17:45.731Z,-0.30
2023-03-01T00:18:47.418Z,-0.38
2023-03-01T00:19:48.996Z,-0.39
2023-03-01T00:20:55.170Z,-0.43
2023-03-01T00:21:56.777Z,-0.35
2023-03-01T00:22:58.354Z,-0.42
2023-03-01T00:23:59.928Z,-0.42
2023-03-01T00:25:01.606Z,-0.43
2023-03-01T00:26:03.597Z,-0.38
2023-03-01T00:27:05.224Z,-0.40
2023-03-01T00:28:06.836Z,-0.44
2023-03-01T00:29:08.487Z,-0.40
2023-03-01T00:30:11.021Z,-0.34
2023-03-01T00:31:15.165Z,-0.40
2023-03-01T00:32:16.838Z,-0.38
2023-03-01T00:33:18.894Z,-0.36
2023-03-01T00:34:20.485Z,-0.32
2023-03-01T00:35:24.148Z,-0.29
2023-03-01T00:36:27.958Z,-0.37
2023-03-01T00:37:29.594Z,-0.30
2023-03-01T00:38:31.309Z,-0.35
2023-03-01T00:39:34.275Z,-0.41
2023-03-01T00:40:36.021Z,-0.36
2023-03-01T00:41:37.637Z,-0.41
2023-03-01T00:42:39.235Z,-0.46
2023-03-01T00:43:40.921Z,-0.44
2023-03-01T00:44:43.428Z,-0.41
2023-03-01T00:45:45.329Z,-0.44
2023-03-01T00:46:46.947Z,-0.43
2023-03-01T00:47:49.701Z,-0.47
2023-03-01T00:48:51.605Z,-0.35
2023-03-01T00:49:53.173Z,-0.40
2023-03-01T00:50:54.728Z,-0.43
2023-03-01T00:51:56.368Z,-0.42
2023-03-01T00:52:59.140Z,-0.42
2023-03-01T00:54:02.153Z,-0.48
2023-03-01T00:55:04.480Z,-0.40
2023-03-01T00:56:07.880Z,-0.31
2023-03-01T00:57:09.500Z,-0.34
2023-03-01T00:58:11.103Z,-0.38
2023-03-01T00:59:12.744Z,-0.35
2023-03-01T01:00:15.071Z,-0.40
2023-03-01T01:01:19.349Z,-0.35
2023-03-01T01:02:21.108Z,-0.39
2023-03-01T01:03:23.141Z,-0.37
2023-03-01T01:04:24.747Z,-0.33
2023-03-01T01:05:26.307Z,-0.36
2023-03-01T01:06:31.264Z,-0.38
2023-03-01T01:07:33.766Z,-0.37
2023-03-01T01:08:35.378Z,-0.42
2023-03-01T01:09:37.677Z,-0.38
2023-03-01T01:10:39.279Z,-0.30
2023-03-01T01:11:40.862Z,-0.32
2023-03-01T01:12:42.463Z,-0.39
2023-03-01T01:13:45.540Z,-0.39
2023-03-01T01:14:47.255Z,-0.43
2023-03-01T01:15:48.857Z,-0.42
2023-03-01T01:16:50.564Z,-0.42
2023-03-01T01:17:52.581Z,-0.43
2023-03-01T01:18:54.319Z,-0.47
2023-03-01T01:19:55.878Z,-0.35
2023-03-01T01:20:57.497Z,-0.43
2023-03-01T01:21:59.167Z,-0.43
2023-03-01T01:23:00.830Z,-0.33
2023-03-01T01:24:04.357Z,-0.36
2023-03-01T01:25:06.326Z,-0.30
2023-03-01T01:26:10.180Z,-0.33
2023-03-01T01:27:11.838Z,-0.42
2023-03-01T01:28:13.767Z,-0.36
2023-03-01T01:29:15.424Z,-0.45
2023-03-01T01:30:17.154Z,-0.42
2023-03-01T01:31:19.407Z,-0.42
2023-03-01T01:32:21.066Z,-0.41
2023-03-01T01:33:22.745Z,-0.45
2023-03-01T01:34:24.342Z,-0.47
2023-03-01T01:35:26.348Z,-0.44
2023-03-01T01:36:28.753Z,-0.43
2023-03-01T01:37:34.285Z,-0.44
2023-03-01T01:38:37.123Z,-0.48
2023-03-01T01:39:38.727Z,-0.41
2023-03-01T01:40:47.972Z,-0.42
2023-03-01T01:41:49.971Z,-0.43
2023-03-01T01:42:51.559Z,-0.40
2023-03-01T01:44:15.212Z,-0.32
2023-03-01T01:45:27.970Z,-0.44
2023-03-01T01:46:32.608Z,-0.38
2023-03-01T01:47:34.509Z,-0.36
2023-03-01T01:48:43.124Z,-0.37
2023-03-01T01:49:50.437Z,-0.40
2023-03-01T01:50:58.975Z,-0.48
2023-03-01T01:52:14.011Z,-0.41
2023-03-01T01:53:17.915Z,-0.39
2023-03-01T01:54:27.071Z,-0.40
2023-03-01T01:55:28.810Z,-0.42
2023-03-01T01:56:31.267Z,-0.40
2023-03-01T01:57:37.339Z,-0.45
2023-03-01T01:58:40.607Z,-0.48
2023-03-01T01:59:44.711Z,-0.46
2023-03-01T02:00:46.392Z,-0.41
2023-03-01T02:01:47.979Z,-0.41
2023-03-01T02:03:11.443Z,-0.41
2023-03-01T02:04:13.064Z,-0.42
2023-03-01T02:05:35.353Z,-0.43
2023-03-01T02:06:51.968Z,-0.45
2023-03-01T02:07:54.248Z,-0.47
2023-03-01T02:09:02.126Z,-0.41
2023-03-01T02:10:03.986Z,-0.41
2023-03-01T02:11:06.560Z,-0.42
2023-03-01T02:12:08.180Z,-0.42
2023-03-01T02:13:10.201Z,-0.45
2023-03-01T02:14:11.920Z,-0.46
2023-03-01T02:15:13.517Z,-0.54
2023-03-01T02:16:16.012Z,-0.46
2023-03-01T02:17:18.690Z,-0.49
2023-03-01T02:18:21.096Z,-0.49
2023-03-01T02:20:21.277Z,-0.51
2023-03-01T02:21:31.929Z,-0.51
2023-03-01T02:22:34.690Z,-0.51
2023-03-01T02:23:37.354Z,-0.47
2023-03-01T02:24:47.592Z,-0.44
2023-03-01T02:25:57.219Z,-0.48
2023-03-01T02:26:59.188Z,-0.47
2023-03-01T02:28:12.481Z,-0.48
2023-03-01T02:29:14.088Z,-0.44
2023-03-01T02:30:16.424Z,-0.44
2023-03-01T02:31:39.547Z,-0.50
2023-03-01T02:32:42.707Z,-0.53
2023-03-01T02:33:45.253Z,-0.52
2023-03-01T02:34:47.058Z,-0.52
2023-03-01T02:35:48.771Z,-0.50
2023-03-01T02:36:59.930Z,-0.51
2023-03-01T02:38:02.704Z,-0.48
2023-03-01T02:39:07.226Z,-0.45
2023-03-01T02:40:12.631Z,-0.48
2023-03-01T02:41:16.758Z,-0.50
2023-03-01T02:42:27.338Z,-0.48
2023-03-01T02:43:32.616Z,-0.47
2023-03-01T02:44:34.260Z,-0.51
2023-03-01T02:45:35.836Z,-0.56
2023-03-01T02:46:48.036Z,-0.63
2023-03-01T02:47:50.211Z,-0.70
2023-03-01T02:48:57.397Z,-0.53
2023-03-01T02:49:59.002Z,-0.61
2023-03-01T02:51:14.714Z,-0.67
2023-03-01T02:52:33.513Z,-0.59
2023-03-01T02:53:43.089Z,-0.72
2023-03-01T02:54:47.958Z,-0.69
2023-03-01T02:55:49.816Z,-0.76
2023-03-01T02:56:51.958Z,-0.74
2023-03-01T02:57:57.245Z,-0.74
2023-03-01T02:59:01.804Z,-0.73
2023-03-01T03:00:09.066Z,-0.67
2023-03-01T03:01:16.879Z,-0.71
2023-03-01T03:02:21.729Z,-0.78
2023-03-01T03:03:23.789Z,-0.85
2023-03-01T03:04:25.489Z,-0.84
2023-03-01T03:05:29.821Z,-0.87
2023-03-01T03:06:33.548Z,-0.78
2023-03-01T03:07:40.065Z,-0.90
2023-03-01T03:08:41.709Z,-0.80
2023-03-01T03:09:43.313Z,-0.91
2023-03-01T03:10:44.906Z,-0.84
2023-03-01T03:11:46.694Z,-0.90
2023-03-01T03:12:53.124Z,-0.79
2023-03-01T03:13:54.799Z,-0.75
2023-03-01T03:14:56.608Z,-0.83
2023-03-01T03:15:58.459Z,-0.83
2023-03-01T03:17:00.004Z,-0.88
2023-03-01T03:18:01.773Z,-0.87
2023-03-01T03:19:06.040Z,-0.82
2023-03-01T03:20:12.776Z,-0.84
2023-03-01T03:21:14.895Z,-0.89
2023-03-01T03:22:16.545Z,-0.89
2023-03-01T03:23:18.103Z,-0.94
2023-03-01T03:24:19.643Z,-1.01
2023-03-01T03:25:22.423Z,-0.98
2023-03-01T03:26:25.855Z,-1.03
2023-03-01T03:27:28.748Z,-0.84
2023-03-01T03:28:31.588Z,-0.88
2023-03-01T03:29:33.239Z,-0.94
2023-03-01T03:30:34.756Z,-0.93
2023-03-01T03:31:36.435Z,-0.90
2023-03-01T03:32:38.104Z,-1.02
2023-03-01T03:33:39.709Z,-1.04
2023-03-01T03:34:41.296Z,-0.99
2023-03-01T03:35:47.752Z,-0.94
2023-03-01T03:36:49.302Z,-0.97
2023-03-01T03:38:04.160Z,-1.00
2023-03-01T03:39:06.611Z,-0.88
2023-03-01T03:40:16.266Z,-0.90
2023-03-01T03:41:18.457Z,-0.96
2023-03-01T03:42:20.059Z,-0.87
2023-03-01T03:43:23.518Z,-0.90
2023-03-01T03:44:25.153Z,-0.95
2023-03-01T03:45:26.912Z,-0.99
2023-03-01T03:46:28.561Z,-0.90
2023-03-01T03:47:30.206Z,-0.92
2023-03-01T03:48:34.780Z,-0.96
2023-03-01T03:49:36.369Z,-1.02
2023-03-01T03:50:41.464Z,-1.05
2023-03-01T03:51:43.067Z,-0.87
2023-03-01T03:52:45.077Z,-0.99
2023-03-01T03:53:46.893Z,-0.98
2023-03-01T03:54:48.479Z,-0.95
2023-03-01T03:55:52.907Z,-0.92
2023-03-01T03:56:54.549Z,-0.93
2023-03-01T03:57:58.951Z,-0.96
2023-03-01T03:59:00.564Z,-0.97
2023-03-01T04:00:02.223Z,-0.85
2023-03-01T04:01:13.880Z,-0.91
2023-03-01T04:02:22.999Z,-0.91
2023-03-01T04:03:26.379Z,-0.89
2023-03-01T04:04:28.061Z,-1.00
2023-03-01T04:05:29.965Z,-0.98
2023-03-01T04:06:32.007Z,-0.92
2023-03-01T04:07:33.749Z,-0.97
2023-03-01T04:08:35.432Z,-1.03
2023-03-01T04:09:37.107Z,-1.04
2023-03-01T04:10:44.524Z,-0.94
2023-03-01T04:11:46.185Z,-0.94
2023-03-01T04:12:47.774Z,-0.93
2023-03-01T04:13:49.548Z,-0.96
2023-03-01T04:14:51.165Z,-0.91
2023-03-01T04:15:53.925Z,-0.90
2023-03-01T04:16:55.674Z,-0.99
2023-03-01T04:17:57.420Z,-0.91
2023-03-01T04:19:00.650Z,-0.94
2023-03-01T04:20:06.622Z,-1.00
2023-03-01T04:21:08.240Z,-0.96
2023-03-01T04:22:12.250Z,-0.98
2023-03-01T04:23:17.217Z,-1.04
2023-03-01T04:24:18.966Z,-1.01
2023-03-01T04:25:20.828Z,-1.05
2023-03-01T04:26:22.454Z,-1.01
2023-03-01T04:27:24.084Z,-1.02
2023-03-01T04:28:39.926Z,-0.99
2023-03-01T04:29:41.509Z,-1.03
2023-03-01T04:30:43.323Z,-0.96
2023-03-01T04:31:44.897Z,-1.03
2023-03-01T04:32:46.565Z,-1.06
2023-03-01T04:33:53.653Z,-1.06
2023-03-01T04:34:55.264Z,-1.06
2023-03-01T04:35:58.641Z,-1.08
2023-03-01T04:37:00.350Z,-1.05
2023-03-01T04:38:02.219Z,-1.09
2023-03-01T04:39:12.948Z,-1.09
2023-03-01T04:40:17.616Z,-1.04
2023-03-01T04:41:20.954Z,-0.97
2023-03-01T04:42:22.519Z,-1.01
2023-03-01T04:43:24.148Z,-1.05
2023-03-01T04:44:25.757Z,-1.06
2023-03-01T04:45:27.336Z,-1.06
2023-03-01T04:46:29.241Z,-1.06
2023-03-01T04:47:31.074Z,-1.04
2023-03-01T04:48:33.318Z,-1.13
2023-03-01T04:49:34.955Z,-1.14
2023-03-01T04:50:36.821Z,-1.01
2023-03-01T04:51:38.720Z,-1.07
2023-03-01T04:52:40.393Z,-1.07
2023-03-01T04:53:43.095Z,-1.11
2023-03-01T04:54:44.735Z,-1.02
2023-03-01T04:55:46.356Z,-1.03
2023-03-01T04:56:47.960Z,-1.00
2023-03-01T04:57:49.526Z,-1.04
2023-03-01T04:58:54.547Z,-1.02
2023-03-01T04:59:56.509Z,-1.14
2023-03-01T05:00:58.086Z,-1.11
2023-03-01T05:02:01.430Z,-1.10
2023-03-01T05:03:03.205Z,-1.07
2023-03-01T05:04:06.422Z,-1.08
2023-03-01T05:05:08.098Z,-1.06
2023-03-01T05:06:09.868Z,-1.13
2023-03-01T05:07:14.023Z,-1.15
2023-03-01T05:08:19.231Z,-1.15
2023-03-01T05:09:20.878Z,-1.20
2023-03-01T05:10:23.262Z,-1.16
2023-03-01T05:11:24.931Z,-1.10
2023-03-01T05:12:26.572Z,-1.14
2023-03-01T05:13:30.101Z,-1.17
2023-03-01T05:14:31.670Z,-1.14
2023-03-01T05:15:33.597Z,-1.14
2023-03-01T05:16:37.360Z,-1.15
2023-03-01T05:17:39.280Z,-1.17
2023-03-01T05:18:41.738Z,-1.15
2023-03-01T05:19:43.673Z,-1.20
2023-03-01T05:20:45.684Z,-1.15
2023-03-01T05:22:02.646Z,-1.20
2023-03-01T05:23:06.323Z,-1.20
2023-03-01T05:24:12.551Z,-1.21
2023-03-01T05:25:17.894Z,-1.18
2023-03-01T05:26:28.227Z,-1.20
2023-03-01T05:27:30.514Z,-1.18
2023-03-01T05:28:32.405Z,-1.21
2023-03-01T05:29:35.863Z,-1.28
2023-03-01T05:30:39.970Z,-1.23
2023-03-01T05:31:42.002Z,-1.26
2023-03-01T05:32:45.652Z,-1.33
2023-03-01T05:33:47.239Z,-1.33
2023-03-01T05:34:48.821Z,-1.43
2023-03-01T05:35:51.329Z,-1.44
2023-03-01T05:36:54.089Z,-1.44
2023-03-01T05:37:55.755Z,-1.51
2023-03-01T05:38:57.332Z,-1.58
2023-03-01T05:39:58.959Z,-1.59
2023-03-01T05:41:00.549Z,-1.68
2023-03-01T05:42:02.353Z,-1.72
2023-03-01T05:43:06.166Z,-1.77
2023-03-01T05:44:08.077Z,-1.74
2023-03-01T05:45:13.382Z,-1.73
2023-03-01T05:46:16.282Z,-1.79
2023-03-01T05:47:18.040Z,-1.81
2023-03-01T05:48:20.568Z,-1.86
2023-03-01T05:49:24.953Z,-1.83
2023-03-01T05:50:29.183Z,-1.83
2023-03-01T05:51:30.970Z,-1.93
2023-03-01T05:52:32.546Z,-1.90
2023-03-01T05:53:34.134Z,-1.93
2023-03-01T05:54:35.797Z,-1.85
2023-03-01T05:55:38.264Z,-1.83
2023-03-01T05:56:39.941Z,-1.84
2023-03-01T05:57:41.810Z,-1.85
2023-03-01T05:58:43.412Z,-1.89
2023-03-01T05:59:45.034Z,-1.91
2023-03-01T06:00:48.612Z,-1.89
2023-03-01T06:01:51.006Z,-1.88
2023-03-01T06:02:55.073Z,-1.88
2023-03-01T06:03:57.692Z,-1.81
2023-03-01T06:04:59.521Z,-1.86
2023-03-01T06:06:01.747Z,-1.84
2023-03-01T06:07:03.456Z,-1.83
2023-03-01T06:08:05.195Z,-1.81
2023-03-01T06:09:08.403Z,-1.79
2023-03-01T06:10:11.385Z,-1.80
2023-03-01T06:11:13.293Z,-1.79
2023-03-01T06:12:15.010Z,-1.75
2023-03-01T06:13:16.567Z,-1.66
2023-03-01T06:14:18.168Z,-1.72
2023-03-01T06:15:19.935Z,-1.77
2023-03-01T06:16:21.493Z,-1.77
2023-03-01T06:17:23.140Z,-1.72
2023-03-01T06:18:24.704Z,-1.72
2023-03-01T06:19:26.300Z,-1.74
2023-03-01T06:20:29.175Z,-1.69
2023-03-01T06:21:30.794Z,-1.72
2023-03-01T06:22:32.390Z,-1.70
2023-03-01T06:23:34.081Z,-1.72
2023-03-01T06:24:35.753Z,-1.73
2023-03-01T06:25:38.338Z,-1.69
2023-03-01T06:26:39.922Z,-1.73
2023-03-01T06:27:42.572Z,-1.71
2023-03-01T06:28:47.061Z,-1.68
2023-03-01T06:29:49.870Z,-1.74
2023-03-01T06:30:52.630Z,-1.72
2023-03-01T06:31:54.638Z,-1.73
2023-03-01T06:33:02.176Z,-1.68
2023-03-01T06:34:03.927Z,-1.73
2023-03-01T06:35:06.433Z,-1.70
2023-03-01T06:36:09.065Z,-1.69
2023-03-01T06:37:10.607Z,-1.60
2023-03-01T06:38:12.184Z,-1.58
2023-03-01T06:39:13.760Z,-1.57
2023-03-01T06:40:16.469Z,-1.56
2023-03-01T06:41:17.962Z,-1.53
2023-03-01T06:42:19.581Z,-1.63
2023-03-01T06:43:21.861Z,-1.59
2023-03-01T06:44:23.439Z,-1.62
2023-03-01T06:45:25.400Z,-1.66
2023-03-01T06:46:27.077Z,-1.68
2023-03-01T06:47:28.963Z,-1.73
2023-03-01T06:48:30.574Z,-1.68
2023-03-01T06:49:32.147Z,-1.64
2023-03-01T06:50:34.906Z,-1.60
2023-03-01T06:51:37.846Z,-1.62
2023-03-01T06:52:39.704Z,-1.58
2023-03-01T06:53:41.303Z,-1.58
2023-03-01T06:54:42.892Z,-1.57
2023-03-01T06:55:44.503Z,-1.57
2023-03-01T06:56:48.150Z,-1.54
2023-03-01T06:57:49.734Z,-1.58
2023-03-01T06:58:51.318Z,-1.50
2023-03-01T06:59:52.891Z,-1.48
2023-03-01T07:00:54.481Z,-1.55
2023-03-01T07:01:56.177Z,-1.52
2023-03-01T07:03:02.981Z,-1.48
2023-03-01T07:04:04.899Z,-1.47
2023-03-01T07:05:06.920Z,-1.47
2023-03-01T07:06:08.568Z,-1.47
2023-03-01T07:07:10.745Z,-1.47
2023-03-01T07:08:12.351Z,-1.47
2023-03-01T07:09:13.948Z,-1.45
2023-03-01T07:10:16.500Z,-1.40
2023-03-01T07:11:18.109Z,-1.48
2023-03-01T07:12:19.698Z,-1.54
2023-03-01T07:13:21.263Z,-1.55
2023-03-01T07:14:25.393Z,-1.50
2023-03-01T07:15:27.633Z,-1.50
2023-03-01T07:16:29.313Z,-1.37
2023-03-01T07:17:31.296Z,-1.42
2023-03-01T07:18:33.130Z,-1.36
2023-03-01T07:19:34.733Z,-1.37
2023-03-01T07:20:36.300Z,-1.39
2023-03-01T07:21:39.600Z,-1.39
2023-03-01T07:22:43.079Z,-1.32
2023-03-01T07:23:44.658Z,-1.36
2023-03-01T07:24:46.241Z,-1.41
2023-03-01T07:25:54.964Z,-1.35
2023-03-01T07:26:56.482Z,-1.36
2023-03-01T07:27:58.131Z,-1.34
2023-03-01T07:29:00.844Z,-1.42
2023-03-01T07:30:02.722Z,-1.40
2023-03-01T07:31:04.592Z,-1.37
2023-03-01T07:32:07.177Z,-1.36
2023-03-01T07:33:09.144Z,-1.23
2023-03-01T07:34:11.752Z,-1.27
2023-03-01T07:35:13.321Z,-1.20
2023-03-01T07:36:14.884Z,-1.31
2023-03-01T07:37:16.452Z,-1.31
2023-03-01T07:38:18.067Z,-1.41
2023-03-01T07:39:19.857Z,-1.32
2023-03-01T07:40:21.742Z,-1.27
2023-03-01T07:41:23.348Z,-1.34
2023-03-01T07:42:25.003Z,-1.24
2023-03-01T07:43:27.379Z,-1.20
2023-03-01T07:44:29.314Z,-1.18
2023-03-01T07:45:30.996Z,-1.18
2023-03-01T07:46:33.175Z,-1.17
2023-03-01T07:47:36.451Z,-1.15
2023-03-01T07:48:38.079Z,-1.19
2023-03-01T07:49:39.658Z,-1.22
2023-03-01T07:50:41.255Z,-1.19
2023-03-01T07:51:44.398Z,-1.15
2023-03-01T07:52:47.391Z,-1.10
2023-03-01T07:53:49.444Z,-1.08
2023-03-01T07:54:51.036Z,-1.05
2023-03-01T07:56:02.871Z,-1.03
2023-03-01T07:57:04.508Z,-0.94
2023-03-01T07:58:06.133Z,-0.93
2023-03-01T07:59:07.728Z,-0.97
2023-03-01T08:00:12.586Z,-0.96
2023-03-01T08:01:16.808Z,-0.99
2023-03-01T08:02:18.398Z,-0.99
2023-03-01T08:03:20.049Z,-0.95
2023-03-01T08:04:21.651Z,-1.01
2023-03-01T08:05:23.328Z,-0.94
2023-03-01T08:06:24.910Z,-0.99
2023-03-01T08:07:26.451Z,-0.80
2023-03-01T08:08:28.439Z,-0.86
2023-03-01T08:09:30.049Z,-0.85
2023-03-01T08:10:31.725Z,-0.80
2023-03-01T08:11:33.357Z,-0.77
2023-03-01T08:12:35.013Z,-0.78
2023-03-01T08:13:36.682Z,-0.81
2023-03-01T08:14:38.552Z,-0.86
2023-03-01T08:15:40.129Z,-0.76
2023-03-01T08:16:41.958Z,-0.75
2023-03-01T08:17:43.559Z,-0.77
2023-03-01T08:18:45.241Z,-0.81
2023-03-01T08:19:46.926Z,-0.85
2023-03-01T08:20:48.862Z,-0.80
2023-03-01T08:21:50.493Z,-0.74
2023-03-01T08:22:52.133Z,-0.80
2023-03-01T08:23:53.712Z,-0.84
2023-03-01T08:24:56.851Z,-0.84
2023-03-01T08:26:24.583Z,-0.71
2023-03-01T08:27:26.176Z,-0.71
2023-03-01T08:28:27.734Z,-0.75
2023-03-01T08:29:31.910Z,-0.60
2023-03-01T08:30:33.523Z,-0.60
2023-03-01T08:31:39.816Z,-0.53
2023-03-01T08:32:41.467Z,-0.62
2023-03-01T08:33:43.112Z,-0.65
2023-03-01T08:34:47.722Z,-0.67
2023-03-01T08:35:49.435Z,-0.65
2023-03-01T08:36:52.696Z,-0.64
2023-03-01T08:37:54.374Z,-0.60
2023-03-01T08:38:56.281Z,-0.66
2023-03-01T08:39:58.034Z,-0.65
2023-03-01T08:41:03.922Z,-0.59
2023-03-01T08:42:05.688Z,-0.54
2023-03-01T08:43:07.328Z,-0.54
2023-03-01T08:44:09.654Z,-0.50
2023-03-01T08:45:12.050Z,-0.39
2023-03-01T08:46:14.153Z,-0.41
2023-03-01T08:47:15.819Z,-0.50
2023-03-01T08:48:17.511Z,-0.38
2023-03-01T08:49:20.013Z,-0.32
2023-03-01T08:50:21.640Z,-0.26
2023-03-01T08:51:25.012Z,-0.43
2023-03-01T08:52:26.918Z,-0.30
2023-03-01T08:53:28.539Z,-0.25
2023-03-01T08:54:30.304Z,-0.22
2023-03-01T08:55:32.357Z,-0.28
2023-03-01T08:56:34.676Z,-0.40
2023-03-01T08:57:36.280Z,-0.36
2023-03-01T08:58:38.765Z,-0.33
2023-03-01T08:59:40.913Z,-0.28
2023-03-01T09:00:42.527Z,-0.13
2023-03-01T09:01:44.483Z,-0.03
2023-03-01T09:02:46.085Z,-0.05
2023-03-01T09:03:48.019Z,-0.10
2023-03-01T09:04:49.569Z,-0.06
2023-03-01T09:05:52.041Z,0.13
2023-03-01T09:06:53.587Z,0.26
2023-03-01T09:07:55.236Z,0.15
2023-03-01T09:08:56.871Z,0.15
2023-03-01T09:09:58.533Z,0.24
2023-03-01T09:11:03.327Z,0.13
2023-03-01T09:12:05.294Z,0.20
2023-03-01T09:13:06.911Z,0.26
2023-03-01T09:14:08.569Z,0.28
2023-03-01T09:15:10.724Z,0.26
2023-03-01T09:16:14.120Z,0.28
2023-03-01T09:17:15.818Z,0.36
2023-03-01T09:18:17.434Z,0.30
2023-03-01T09:19:19.048Z,0.29
2023-03-01T09:20:20.913Z,0.43
2023-03-01T09:21:39.202Z,0.42
2023-03-01T09:22:41.555Z,0.46
2023-03-01T09:23:45.590Z,0.56
2023-03-01T09:24:47.186Z,0.65
2023-03-01T09:25:48.752Z,0.56
2023-03-01T09:26:51.787Z,0.25
2023-03-01T09:27:54.537Z,0.34
2023-03-01T09:28:56.443Z,0.44
2023-03-01T09:29:58.028Z,0.56
2023-03-01T09:31:00.736Z,0.58
2023-03-01T09:32:03.076Z,0.66
2023-03-01T09:33:04.703Z,0.69
2023-03-01T09:34:07.116Z,0.67
2023-03-01T09:35:09.047Z,0.69
2023-03-01T09:36:16.316Z,0.85
2023-03-01T09:37:17.908Z,0.67
2023-03-01T09:38:19.506Z,0.58
2023-03-01T09:39:21.474Z,0.52
2023-03-01T09:40:27.545Z,0.69
2023-03-01T09:41:47.376Z,0.85
2023-03-01T09:42:52.918Z,0.96
2023-03-01T09:43:58.928Z,0.90
2023-03-01T09:45:04.667Z,0.73
2023-03-01T09:46:09.584Z,0.86
2023-03-01T09:47:20.981Z,0.77
2023-03-01T09:48:28.475Z,0.55
2023-03-01T09:49:32.987Z,0.50
2023-03-01T09:50:37.331Z,0.58
2023-03-01T09:51:39.074Z,0.87
2023-03-01T09:52:43.806Z,1.18
2023-03-01T09:53:45.542Z,1.05
2023-03-01T09:54:48.231Z,1.03
2023-03-01T09:55:51.885Z,0.82
2023-03-01T09:57:21.890Z,1.02
2023-03-01T09:58:42.077Z,0.95
2023-03-01T09:59:46.366Z,0.80
2023-03-01T10:00:49.818Z,0.99
2023-03-01T10:02:17.545Z,0.89
2023-03-01T10:03:27.643Z,0.60
2023-03-01T10:04:37.649Z,0.64
2023-03-01T10:05:51.341Z,0.60
2023-03-01T10:07:10.828Z,0.72
2023-03-01T10:08:42.687Z,0.70
2023-03-01T10:09:45.751Z,0.60
2023-03-01T10:10:48.540Z,0.79
2023-03-01T10:11:53.788Z,0.68
2023-03-01T10:12:56.775Z,0.75
2023-03-01T10:13:58.366Z,0.86
2023-03-01T10:15:06.198Z,1.13
2023-03-01T10:16:13.086Z,1.40
2023-03-01T10:17:19.507Z,1.45
2023-03-01T10:18:26.452Z,1.53
2023-03-01T10:19:37.006Z,1.78
2023-03-01T10:20:49.952Z,2.09
2023-03-01T10:21:52.232Z,3.35
2023-03-01T10:22:56.150Z,2.99
2023-03-01T10:24:10.431Z,3.62
2023-03-01T10:25:15.635Z,3.26
2023-03-01T10:26:37.428Z,4.44
2023-03-01T10:27:49.093Z,4.64
2023-03-01T10:29:08.664Z,5.52
2023-03-01T10:30:44.919Z,6.02
2023-03-01T10:31:51.417Z,6.60
2023-03-01T10:32:53.701Z,6.41
2023-03-01T10:33:57.201Z,6.63
2023-03-01T10:34:59.555Z,6.77
2023-03-01T10:36:01.232Z,6.22
2023-03-01T10:37:10.846Z,5.97
2023-03-01T10:38:16.713Z,5.79
2023-03-01T10:39:23.474Z,6.33
2023-03-01T10:40:25.034Z,6.21
2023-03-01T10:41:28.006Z,6.49
2023-03-01T10:42:32.381Z,6.33
2023-03-01T10:43:57.534Z,5.45
2023-03-01T10:44:59.785Z,5.68
2023-03-01T10:46:01.335Z,6.08
2023-03-01T10:47:03.126Z,6.90
2023-03-01T10:48:09.272Z,6.66
2023-03-01T10:49:22.359Z,6.96
2023-03-01T10:50:24.093Z,6.41
2023-03-01T10:51:25.683Z,6.24
2023-03-01T10:52:35.898Z,5.43
2023-03-01T10:53:41.577Z,4.48
2023-03-01T10:54:53.005Z,4.40
2023-03-01T10:56:01.853Z,4.48
2023-03-01T10:57:05.961Z,4.70
2023-03-01T10:58:10.370Z,4.95
2023-03-01T10:59:23.163Z,6.46
2023-03-01T11:00:26.448Z,6.37
2023-03-01T11:01:31.159Z,6.91
2023-03-01T11:02:35.055Z,7.26
2023-03-01T11:03:38.486Z,6.71
2023-03-01T11:04:40.140Z,7.19
2023-03-01T11:05:55.734Z,7.17
2023-03-01T11:07:02.007Z,6.56
2023-03-01T11:08:04.419Z,6.64
2023-03-01T11:09:24.120Z,6.98
2023-03-01T11:10:29.676Z,6.69
2023-03-01T11:11:34.429Z,6.53
2023-03-01T11:12:41.707Z,6.07
2023-03-01T11:13:58.059Z,6.53
2023-03-01T11:14:59.721Z,6.98
2023-03-01T11:16:02.016Z,7.05
2023-03-01T11:17:06.538Z,7.88
2023-03-01T11:18:20.637Z,7.34
2023-03-01T11:19:22.613Z,7.36
2023-03-01T11:20:36.515Z,7.37
2023-03-01T11:21:43.119Z,7.48
2023-03-01T11:22:51.739Z,7.40
2023-03-01T11:23:53.454Z,6.79
2023-03-01T11:25:08.827Z,7.07
2023-03-01T11:26:13.122Z,7.92
2023-03-01T11:27:19.661Z,8.10
2023-03-01T11:28:22.558Z,7.36
2023-03-01T11:29:47.824Z,7.40
2023-03-01T11:31:08.828Z,8.20
2023-03-01T11:32:11.366Z,7.45
2023-03-01T11:33:22.805Z,7.03
2023-03-01T11:35:02.856Z,6.77
2023-03-01T11:36:09.665Z,6.57
2023-03-01T11:37:30.007Z,6.25
2023-03-01T11:38:35.086Z,6.78
2023-03-01T11:39:54.902Z,6.97
2023-03-01T11:41:06.415Z,7.12
2023-03-01T11:42:30.238Z,7.27
2023-03-01T11:43:54.439Z,6.24
2023-03-01T11:44:59.405Z,5.56
2023-03-01T11:46:15.708Z,4.56
2023-03-01T11:47:20.432Z,4.47
2023-03-01T11:49:14.461Z,3.98
2023-03-01T11:50:41.236Z,4.46
2023-03-01T11:52:01.786Z,4.40
2023-03-01T11:53:28.666Z,4.46
2023-03-01T11:54:50.399Z,4.44
2023-03-01T11:56:23.883Z,4.59
2023-03-01T11:57:43.519Z,4.51
2023-03-01T11:59:20.144Z,4.70
2023-03-01T12:00:48.757Z,4.76
2023-03-01T12:01:58.193Z,4.57
2023-03-01T12:03:26.430Z,4.37
2023-03-01T12:04:49.784Z,4.54
2023-03-01T12:06:10.126Z,4.31
2023-03-01T12:07:21.479Z,4.38
2023-03-01T12:08:28.411Z,4.49
2023-03-01T12:09:48.042Z,4.76
2023-03-01T12:11:02.359Z,4.95
2023-03-01T12:12:11.111Z,4.66
2023-03-01T12:13:28.730Z,4.52
2023-03-01T12:14:43.137Z,4.14
2023-03-01T12:15:56.658Z,4.33
2023-03-01T12:17:01.328Z,4.44
2023-03-01T12:18:19.497Z,4.72
2023-03-01T12:19:30.929Z,4.77
2023-03-01T12:20:45.119Z,4.48
2023-03-01T12:22:29.552Z,4.66
2023-03-01T12:23:33.708Z,4.47
2023-03-01T12:24:50.050Z,4.20
2023-03-01T12:26:07.979Z,4.49
2023-03-01T12:27:36.790Z,4.49
2023-03-01T12:28:53.052Z,4.32
2023-03-01T12:30:22.588Z,4.35
2023-03-01T12:31:45.511Z,4.33
2023-03-01T12:33:00.578Z,4.48
2023-03-01T12:34:02.245Z,4.54
2023-03-01T12:35:18.349Z,4.25
2023-03-01T12:36:39.289Z,4.33
2023-03-01T12:37:57.999Z,3.94
2023-03-01T12:39:20.317Z,4.03
2023-03-01T12:40:39.839Z,4.13
2023-03-01T12:42:26.855Z,4.02
2023-03-01T12:43:47.332Z,4.18
2023-03-01T12:45:27.598Z,4.03
2023-03-01T12:46:47.789Z,3.91
2023-03-01T12:48:01.567Z,3.93
2023-03-01T12:49:14.552Z,3.87
2023-03-01T12:50:28.761Z,3.88
2023-03-01T12:51:32.726Z,3.91
2023-03-01T12:52:42.350Z,4.03
2023-03-01T12:53:52.100Z,4.20
2023-03-01T12:54:55.135Z,4.12
2023-03-01T12:56:03.978Z,4.27
2023-03-01T12:57:27.279Z,4.10
2023-03-01T12:58:56.257Z,4.03
2023-03-01T13:00:33.406Z,3.92
2023-03-01T13:01:44.040Z,4.29
2023-03-01T13:02:59.484Z,4.31
2023-03-01T13:04:26.745Z,4.38
2023-03-01T13:06:03.618Z,4.28
2023-03-01T13:07:26.209Z,4.10
2023-03-01T13:08:45.337Z,4.15
2023-03-01T13:09:51.535Z,4.00
2023-03-01T13:10:57.298Z,3.98
2023-03-01T13:11:59.046Z,3.96
2023-03-01T13:13:09.617Z,4.06
2023-03-01T13:14:26.438Z,4.12
2023-03-01T13:15:29.800Z,4.11
2023-03-01T13:16:31.874Z,4.21
2023-03-01T13:17:42.430Z,4.19
2023-03-01T13:18:44.273Z,4.38
2023-03-01T13:19:57.894Z,4.29
2023-03-01T13:21:01.589Z,4.17
2023-03-01T13:22:28.854Z,4.34
2023-03-01T13:23:38.865Z,4.19
2023-03-01T13:24:42.185Z,4.16
2023-03-01T13:26:02.514Z,4.17
2023-03-01T13:27:07.149Z,4.14
2023-03-01T13:28:39.343Z,4.21
2023-03-01T13:29:55.405Z,4.23
2023-03-01T13:30:56.987Z,4.28
2023-03-01T13:31:59.558Z,4.22
2023-03-01T13:33:29.754Z,4.22
2023-03-01T13:34:46.080Z,4.27
2023-03-01T13:35:48.114Z,4.48
2023-03-01T13:36:50.289Z,4.56
2023-03-01T13:37:51.944Z,4.46
2023-03-01T13:38:56.348Z,4.25
2023-03-01T13:40:02.495Z,4.36
2023-03-01T13:41:05.528Z,4.29
2023-03-01T13:42:40.738Z,4.46
2023-03-01T13:43:44.905Z,4.46
2023-03-01T13:44:46.571Z,4.43
2023-03-01T13:45:48.427Z,4.57
2023-03-01T13:46:55.106Z,4.53
2023-03-01T13:48:00.254Z,4.47
2023-03-01T13:49:01.888Z,4.46
2023-03-01T13:50:05.256Z,4.32
2023-03-01T13:51:10.214Z,4.26
2023-03-01T13:52:26.215Z,4.39
2023-03-01T13:53:31.752Z,4.46
2023-03-01T13:54:34.784Z,4.37
2023-03-01T13:55:44.226Z,4.56
2023-03-01T13:56:45.980Z,4.51
2023-03-01T13:57:54.450Z,4.42
2023-03-01T13:58:59.455Z,4.53
2023-03-01T14:00:01.123Z,4.56
2023-03-01T14:01:07.889Z,4.69
2023-03-01T14:02:17.744Z,4.66
2023-03-01T14:03:20.723Z,4.44
2023-03-01T14:04:26.495Z,4.40
2023-03-01T14:05:28.184Z,4.31
2023-03-01T14:06:32.432Z,4.33
2023-03-01T14:07:37.664Z,4.36
2023-03-01T14:08:39.369Z,4.43
2023-03-01T14:09:43.711Z,4.46
2023-03-01T14:10:57.539Z,4.54
2023-03-01T14:12:22.890Z,4.67
2023-03-01T14:13:26.914Z,4.57
2023-03-01T14:14:54.817Z,4.53
2023-03-01T14:16:17.537Z,4.73
2023-03-01T14:17:30.996Z,4.74